Adrian, OR

8:12 PM MDT on October 20, 2014 (GMT -0600)
Owyhee Junction | Change Station
CLOSE
Current Station
Personal Weather Station
Location: Nyssa, OR
Elevation: 2210 ft
Nearby Weather Stations
Active Advisory: Special Statement

Elev 2210 ft 43.79 °N, 117.10 °W | Updated 13 minutes ago

Partly Cloudy
Partly Cloudy
59.7 °F
Feels Like 59.7 °F
N
0.0
Wind Variable Wind from ENE

Today
High -- | Low -- °F
--% Chance of Precip.
Yesterday
High -- | Low -- °F
Precip. -- in
8:08 AM 6:56 PM
Waning Crescent, 8% visible
Pressure 29.72 in
Visibility 10.0 miles
Clouds Clear
Dew Point 43 °F
Humidity 54%
Rainfall 0.00 in
Snow Depth Not available.
UV 0 out of 12
Pollen 4.00 out of 12
Air Quality Not available.
Flu Activity Sporadic
METAR KEUL 210155Z AUTO 25005KT 10SM CLR 16/04 A2972 RMK AO1

More Conditions Fewer Conditions

Pressure 29.72 in
Visibility 10.0 miles
Clouds Clear
Dew Point 43 °F
Humidity 54%
Rainfall 0.00 in
Snow Depth Not available.
UV 0 out of 12
Pollen 4.00 out of 12
Air Quality Not available.
Flu Activity Sporadic
METAR KEUL 210155Z AUTO 25005KT 10SM CLR 16/04 A2972 RMK AO1

More Conditions Fewer Conditions

10-Day Weather Forecast

Almanac

Astronomy

Oct. 20, 2014 Rise Set
Actual Time 8:08 AM MDT 6:56 PM MDT
Civil Twilight 7:39 AM MDT 7:25 PM MDT
Nautical Twilight 7:06 AM MDT 7:58 PM MDT
Astronomical Twilight 6:33 AM MDT 8:32 PM MDT
Moon 4:55 AM MDT (10/20) 5:26 PM MDT (10/20)
Length of Visible Light 11h 46m
Length of Day
10h 47m
Tomorrow will be 2m 49s shorter.
Waning Crescent, 8% of the Moon is Illuminated
Today
Waning Crescent
Oct 23
New
Oct 30
First Quarter
Nov 6
Full
Nov 14
Last Quarter

Today's Extremes

State Highs State Lows

Community

WunderPhotos

Upload Photos

1,763,572 photos uploaded!

Nearby

Snow Depth

Station Depth Elevation
Blue Mountain Spring 0 in 5900 ft
Schneider Meadows 0 in 5400 ft
Tipton 0 in 5150 ft
Gold Center 0 in 5340 ft
Fish Creek 0 in 7900 ft

Earthquake Activity

City Distance Mag. Time & Date
No recent earthquake activity has been reported nearby.
Minimum magnitude displayed is 2.5.

Coastal Water Temperatures

Place Temperature
No Stations Reporting

Nearby Weather Stations